sensor_id;sensor_type;location;lat;lon;timestamp;temperature;humidity
68098;DHT22;54886;47.036;15.466;2023-07-13T00:04:49;23.12;61.38
68098;DHT22;54886;47.036;15.466;2023-07-13T00:07:16;23.16;60.56
68098;DHT22;54886;47.036;15.466;2023-07-13T00:09:45;23.11;62.34
68098;DHT22;54886;47.036;15.466;2023-07-13T00:12:32;23.08;61.15
68098;DHT22;54886;47.036;15.466;2023-07-13T00:15:00;23.08;61.21
68098;DHT22;54886;47.036;15.466;2023-07-13T00:20:48;23.01;61.62
68098;DHT22;54886;47.036;15.466;2023-07-13T00:26:35;22.96;61.14
68098;DHT22;54886;47.036;15.466;2023-07-13T00:29:00;22.96;60.15
68098;DHT22;54886;47.036;15.466;2023-07-13T00:34:48;22.98;59.98
68098;DHT22;54886;47.036;15.466;2023-07-13T00:40:35;22.96;59.31
68098;DHT22;54886;47.036;15.466;2023-07-13T00:43:01;22.88;59.77
68098;DHT22;54886;47.036;15.466;2023-07-13T00:47:53;22.85;59.76
68098;DHT22;54886;47.036;15.466;2023-07-13T00:50:20;22.83;59.83
68098;DHT22;54886;47.036;15.466;2023-07-13T00:52:49;22.83;59.76
68098;DHT22;54886;47.036;15.466;2023-07-13T00:55:17;22.88;59.69
68098;DHT22;54886;47.036;15.466;2023-07-13T01:01:04;22.69;61.23
68098;DHT22;54886;47.036;15.466;2023-07-13T01:03:30;22.63;60.93
68098;DHT22;54886;47.036;15.466;2023-07-13T01:05:56;22.65;60.82
68098;DHT22;54886;47.036;15.466;2023-07-13T01:08:22;22.64;61.04
68098;DHT22;54886;47.036;15.466;2023-07-13T01:10:55;22.61;60.88
68098;DHT22;54886;47.036;15.466;2023-07-13T01:16:45;22.60;60.83
68098;DHT22;54886;47.036;15.466;2023-07-13T01:19:25;22.57;61.26
68098;DHT22;54886;47.036;15.466;2023-07-13T01:25:04;22.56;61.29
68098;DHT22;54886;47.036;15.466;2023-07-13T01:30:51;22.51;62.64
68098;DHT22;54886;47.036;15.466;2023-07-13T01:36:38;22.48;65.31
68098;DHT22;54886;47.036;15.466;2023-07-13T01:42:26;22.41;66.94
68098;DHT22;54886;47.036;15.466;2023-07-13T01:44:51;22.33;66.83
68098;DHT22;54886;47.036;15.466;2023-07-13T01:47:17;22.28;67.39
68098;DHT22;54886;47.036;15.466;2023-07-13T01:53:05;22.20;67.00
68098;DHT22;54886;47.036;15.466;2023-07-13T01:55:31;22.12;71.59
68098;DHT22;54886;47.036;15.466;2023-07-13T01:57:56;22.06;71.87
68098;DHT22;54886;47.036;15.466;2023-07-13T02:00:22;22.10;70.31
68098;DHT22;54886;47.036;15.466;2023-07-13T02:02:48;22.02;71.26
68098;DHT22;54886;47.036;15.466;2023-07-13T02:05:14;21.95;72.11
68098;DHT22;54886;47.036;15.466;2023-07-13T02:07:40;21.74;73.50
68098;DHT22;54886;47.036;15.466;2023-07-13T02:10:07;21.77;73.41
68098;DHT22;54886;47.036;15.466;2023-07-13T02:12:33;21.71;73.46
68098;DHT22;54886;47.036;15.466;2023-07-13T02:18:21;21.65;74.08
68098;DHT22;54886;47.036;15.466;2023-07-13T02:20:47;21.54;75.25
68098;DHT22;54886;47.036;15.466;2023-07-13T02:23:12;21.43;75.48
68098;DHT22;54886;47.036;15.466;2023-07-13T02:25:38;21.43;72.24
68098;DHT22;54886;47.036;15.466;2023-07-13T02:28:04;21.44;75.12
68098;DHT22;54886;47.036;15.466;2023-07-13T02:33:51;21.51;72.87
68098;DHT22;54886;47.036;15.466;2023-07-13T02:36:16;21.46;75.09
68098;DHT22;54886;47.036;15.466;2023-07-13T02:38:44;21.37;75.40
68098;DHT22;54886;47.036;15.466;2023-07-13T02:41:10;21.31;75.91
68098;DHT22;54886;47.036;15.466;2023-07-13T02:43:37;21.31;75.67
68098;DHT22;54886;47.036;15.466;2023-07-13T02:49:24;21.30;75.48
68098;DHT22;54886;47.036;15.466;2023-07-13T02:51:51;21.19;75.30
68098;DHT22;54886;47.036;15.466;2023-07-13T02:54:16;21.23;74.86
68098;DHT22;54886;47.036;15.466;2023-07-13T02:56:42;21.16;75.14
68098;DHT22;54886;47.036;15.466;2023-07-13T02:59:09;21.12;75.16
68098;DHT22;54886;47.036;15.466;2023-07-13T03:04:56;21.27;72.69
68098;DHT22;54886;47.036;15.466;2023-07-13T03:07:22;21.29;74.74
68098;DHT22;54886;47.036;15.466;2023-07-13T03:09:47;21.34;74.39
68098;DHT22;54886;47.036;15.466;2023-07-13T03:15:35;21.33;73.72
68098;DHT22;54886;47.036;15.466;2023-07-13T03:18:01;21.37;73.89
68098;DHT22;54886;47.036;15.466;2023-07-13T03:20:26;21.31;75.62
68098;DHT22;54886;47.036;15.466;2023-07-13T03:22:52;21.37;73.89
68098;DHT22;54886;47.036;15.466;2023-07-13T03:25:17;21.40;72.36
68098;DHT22;54886;47.036;15.466;2023-07-13T03:31:08;21.18;76.97
68098;DHT22;54886;47.036;15.466;2023-07-13T03:33:35;21.22;76.15
68098;DHT22;54886;47.036;15.466;2023-07-13T03:36:02;21.07;77.01
68098;DHT22;54886;47.036;15.466;2023-07-13T03:41:50;21.06;76.63
68098;DHT22;54886;47.036;15.466;2023-07-13T03:44:17;20.99;77.19
68098;DHT22;54886;47.036;15.466;2023-07-13T03:46:43;20.88;77.43
68098;DHT22;54886;47.036;15.466;2023-07-13T03:49:10;20.85;77.81
68098;DHT22;54886;47.036;15.466;2023-07-13T03:51:36;20.84;77.74
68098;DHT22;54886;47.036;15.466;2023-07-13T03:57:25;20.95;74.28
68098;DHT22;54886;47.036;15.466;2023-07-13T03:59:51;21.00;74.86
68098;DHT22;54886;47.036;15.466;2023-07-13T04:02:17;21.06;73.28
68098;DHT22;54886;47.036;15.466;2023-07-13T04:04:43;21.12;72.56
68098;DHT22;54886;47.036;15.466;2023-07-13T04:07:09;21.18;73.29
68098;DHT22;54886;47.036;15.466;2023-07-13T04:09:36;21.24;74.34
68098;DHT22;54886;47.036;15.466;2023-07-13T04:12:02;21.14;77.51
68098;DHT22;54886;47.036;15.466;2023-07-13T04:14:28;21.10;77.45
68098;DHT22;54886;47.036;15.466;2023-07-13T04:16:53;21.14;72.87
68098;DHT22;54886;47.036;15.466;2023-07-13T04:19:20;21.14;72.06
68098;DHT22;54886;47.036;15.466;2023-07-13T04:21:46;21.16;72.65
68098;DHT22;54886;47.036;15.466;2023-07-13T04:27:33;21.18;76.80
68098;DHT22;54886;47.036;15.466;2023-07-13T04:29:59;21.10;77.26
68098;DHT22;54886;47.036;15.466;2023-07-13T04:32:25;21.13;75.92
68098;DHT22;54886;47.036;15.466;2023-07-13T04:34:50;21.14;76.76
68098;DHT22;54886;47.036;15.466;2023-07-13T04:37:19;21.12;74.82
68098;DHT22;54886;47.036;15.466;2023-07-13T04:43:13;21.05;78.01
68098;DHT22;54886;47.036;15.466;2023-07-13T04:45:39;21.09;78.48
68098;DHT22;54886;47.036;15.466;2023-07-13T04:48:04;21.03;78.56
68098;DHT22;54886;47.036;15.466;2023-07-13T04:50:30;21.05;77.75
68098;DHT22;54886;47.036;15.466;2023-07-13T04:52:56;21.06;77.24
68098;DHT22;54886;47.036;15.466;2023-07-13T04:58:43;21.09;78.42
68098;DHT22;54886;47.036;15.466;2023-07-13T05:01:09;21.06;79.04
68098;DHT22;54886;47.036;15.466;2023-07-13T05:03:35;21.14;78.79
68098;DHT22;54886;47.036;15.466;2023-07-13T05:06:06;21.13;79.21
68098;DHT22;54886;47.036;15.466;2023-07-13T05:08:35;21.14;78.80
68098;DHT22;54886;47.036;15.466;2023-07-13T05:14:22;21.23;78.60
68098;DHT22;54886;47.036;15.466;2023-07-13T05:16:48;21.27;78.93
68098;DHT22;54886;47.036;15.466;2023-07-13T05:22:35;21.37;75.67
68098;DHT22;54886;47.036;15.466;2023-07-13T05:28:23;21.55;77.06
68098;DHT22;54886;47.036;15.466;2023-07-13T05:34:10;21.69;75.79
68098;DHT22;54886;47.036;15.466;2023-07-13T05:39:58;21.78;73.30
68098;DHT22;54886;47.036;15.466;2023-07-13T05:42:24;21.84;73.23
68098;DHT22;54886;47.036;15.466;2023-07-13T05:44:49;21.85;73.17
68098;DHT22;54886;47.036;15.466;2023-07-13T05:50:37;21.92;70.72
68098;DHT22;54886;47.036;15.466;2023-07-13T05:53:03;21.96;72.38
68098;DHT22;54886;47.036;15.466;2023-07-13T05:55:28;22.01;73.08
68098;DHT22;54886;47.036;15.466;2023-07-13T05:57:54;22.02;73.34
68098;DHT22;54886;47.036;15.466;2023-07-13T06:03:42;22.10;71.91
68098;DHT22;54886;47.036;15.466;2023-07-13T06:06:09;22.14;73.51
68098;DHT22;54886;47.036;15.466;2023-07-13T06:08:35;22.13;74.31
68098;DHT22;54886;47.036;15.466;2023-07-13T06:11:12;22.16;72.22
68098;DHT22;54886;47.036;15.466;2023-07-13T06:13:38;22.22;72.53
68098;DHT22;54886;47.036;15.466;2023-07-13T06:16:04;22.23;73.66
68098;DHT22;54886;47.036;15.466;2023-07-13T06:21:52;22.29;74.25
68098;DHT22;54886;47.036;15.466;2023-07-13T06:24:17;22.33;73.94
68098;DHT22;54886;47.036;15.466;2023-07-13T06:26:43;22.35;74.94
68098;DHT22;54886;47.036;15.466;2023-07-13T06:29:09;22.43;73.58
68098;DHT22;54886;47.036;15.466;2023-07-13T06:31:34;22.44;72.49
68098;DHT22;54886;47.036;15.466;2023-07-13T06:34:00;22.50;66.88
68098;DHT22;54886;47.036;15.466;2023-07-13T06:36:26;22.53;68.85
68098;DHT22;54886;47.036;15.466;2023-07-13T06:38:52;22.54;71.85
68098;DHT22;54886;47.036;15.466;2023-07-13T06:41:18;22.57;70.72
68098;DHT22;54886;47.036;15.466;2023-07-13T06:47:05;22.65;66.90
68098;DHT22;54886;47.036;15.466;2023-07-13T06:49:31;22.65;68.43
68098;DHT22;54886;47.036;15.466;2023-07-13T06:51:58;22.65;67.47
68098;DHT22;54886;47.036;15.466;2023-07-13T06:57:47;22.75;71.62
68098;DHT22;54886;47.036;15.466;2023-07-13T07:00:13;22.79;67.37
68098;DHT22;54886;47.036;15.466;2023-07-13T07:02:39;22.85;69.02
68098;DHT22;54886;47.036;15.466;2023-07-13T07:05:05;22.90;67.99
68098;DHT22;54886;47.036;15.466;2023-07-13T07:07:31;22.91;69.44
68098;DHT22;54886;47.036;15.466;2023-07-13T07:13:19;22.99;67.63
68098;DHT22;54886;47.036;15.466;2023-07-13T07:15:45;23.02;69.52
68098;DHT22;54886;47.036;15.466;2023-07-13T07:18:12;23.09;69.39
68098;DHT22;54886;47.036;15.466;2023-07-13T07:20:38;23.15;67.67
68098;DHT22;54886;47.036;15.466;2023-07-13T07:23:04;23.12;66.18
68098;DHT22;54886;47.036;15.466;2023-07-13T07:25:30;23.12;67.51
68098;DHT22;54886;47.036;15.466;2023-07-13T07:27:58;23.11;66.32
68098;DHT22;54886;47.036;15.466;2023-07-13T07:33:46;23.20;64.58
68098;DHT22;54886;47.036;15.466;2023-07-13T07:36:13;23.23;63.75
68098;DHT22;54886;47.036;15.466;2023-07-13T07:38:39;23.27;63.73
68098;DHT22;54886;47.036;15.466;2023-07-13T07:41:04;23.33;63.61
68098;DHT22;54886;47.036;15.466;2023-07-13T07:43:30;23.37;63.12
68098;DHT22;54886;47.036;15.466;2023-07-13T07:45:57;23.37;63.01
68098;DHT22;54886;47.036;15.466;2023-07-13T07:48:23;23.43;62.73
68098;DHT22;54886;47.036;15.466;2023-07-13T07:54:11;23.58;62.67
68098;DHT22;54886;47.036;15.466;2023-07-13T07:56:36;23.64;64.35
68098;DHT22;54886;47.036;15.466;2023-07-13T07:59:02;23.65;64.50
68098;DHT22;54886;47.036;15.466;2023-07-13T08:01:28;23.70;63.21
68098;DHT22;54886;47.036;15.466;2023-07-13T08:03:53;23.74;63.28
68098;DHT22;54886;47.036;15.466;2023-07-13T08:09:40;23.82;63.18
68098;DHT22;54886;47.036;15.466;2023-07-13T08:12:06;23.85;63.25
68098;DHT22;54886;47.036;15.466;2023-07-13T08:14:32;23.81;63.10
68098;DHT22;54886;47.036;15.466;2023-07-13T08:16:58;23.86;62.60
68098;DHT22;54886;47.036;15.466;2023-07-13T08:19:23;23.86;62.09
68098;DHT22;54886;47.036;15.466;2023-07-13T08:25:10;23.97;61.99
68098;DHT22;54886;47.036;15.466;2023-07-13T08:27:36;23.95;62.02
68098;DHT22;54886;47.036;15.466;2023-07-13T08:30:02;23.97;61.55
68098;DHT22;54886;47.036;15.466;2023-07-13T08:32:28;24.01;61.25
68098;DHT22;54886;47.036;15.466;2023-07-13T08:34:54;24.08;59.04
68098;DHT22;54886;47.036;15.466;2023-07-13T08:40:43;24.13;57.59
68098;DHT22;54886;47.036;15.466;2023-07-13T08:43:13;24.28;56.39
68098;DHT22;54886;47.036;15.466;2023-07-13T08:45:50;24.30;56.64
68098;DHT22;54886;47.036;15.466;2023-07-13T08:48:25;24.36;55.44
68098;DHT22;54886;47.036;15.466;2023-07-13T08:53:24;24.43;57.51
68098;DHT22;54886;47.036;15.466;2023-07-13T08:55:58;24.44;55.78
68098;DHT22;54886;47.036;15.466;2023-07-13T08:58:25;24.52;55.41
68098;DHT22;54886;47.036;15.466;2023-07-13T09:01:22;24.56;52.42
68098;DHT22;54886;47.036;15.466;2023-07-13T09:06:23;24.66;51.76
68098;DHT22;54886;47.036;15.466;2023-07-13T09:09:10;24.73;56.65
68098;DHT22;54886;47.036;15.466;2023-07-13T09:14:45;24.87;56.03
68098;DHT22;54886;47.036;15.466;2023-07-13T09:20:46;24.98;56.88
68098;DHT22;54886;47.036;15.466;2023-07-13T09:26:35;25.18;58.43
68098;DHT22;54886;47.036;15.466;2023-07-13T09:32:23;25.22;57.68
68098;DHT22;54886;47.036;15.466;2023-07-13T09:34:54;25.22;58.94
68098;DHT22;54886;47.036;15.466;2023-07-13T09:46:55;25.56;53.55
68098;DHT22;54886;47.036;15.466;2023-07-13T09:52:47;25.63;52.34
68098;DHT22;54886;47.036;15.466;2023-07-13T09:55:40;25.64;51.51
68098;DHT22;54886;47.036;15.466;2023-07-13T10:01:36;25.78;50.19
68098;DHT22;54886;47.036;15.466;2023-07-13T10:07:24;25.90;50.92
68098;DHT22;54886;47.036;15.466;2023-07-13T10:13:28;25.95;50.56
68098;DHT22;54886;47.036;15.466;2023-07-13T10:15:55;25.98;50.24
68098;DHT22;54886;47.036;15.466;2023-07-13T10:18:24;25.98;52.00
68098;DHT22;54886;47.036;15.466;2023-07-13T10:20:54;26.02;52.67
68098;DHT22;54886;47.036;15.466;2023-07-13T10:23:31;26.05;48.48
68098;DHT22;54886;47.036;15.466;2023-07-13T10:25:59;26.11;50.10
68098;DHT22;54886;47.036;15.466;2023-07-13T10:31:48;26.15;48.82
68098;DHT22;54886;47.036;15.466;2023-07-13T10:34:14;26.15;51.41
68098;DHT22;54886;47.036;15.466;2023-07-13T10:36:47;26.19;54.06
68098;DHT22;54886;47.036;15.466;2023-07-13T10:39:26;26.32;50.94
68098;DHT22;54886;47.036;15.466;2023-07-13T10:41:54;26.33;51.24
68098;DHT22;54886;47.036;15.466;2023-07-13T10:44:31;26.36;50.42
68098;DHT22;54886;47.036;15.466;2023-07-13T10:47:00;26.42;50.93
68098;DHT22;54886;47.036;15.466;2023-07-13T10:49:28;26.46;51.57
68098;DHT22;54886;47.036;15.466;2023-07-13T10:51:54;26.53;50.99
68098;DHT22;54886;47.036;15.466;2023-07-13T10:54:42;26.59;53.54
68098;DHT22;54886;47.036;15.466;2023-07-13T10:57:18;26.70;53.25
68098;DHT22;54886;47.036;15.466;2023-07-13T11:06:08;26.80;51.82
68098;DHT22;54886;47.036;15.466;2023-07-13T11:20:37;27.07;53.80
68098;DHT22;54886;47.036;15.466;2023-07-13T11:23:26;27.00;53.14
68098;DHT22;54886;47.036;15.466;2023-07-13T11:25:52;26.98;54.75
68098;DHT22;54886;47.036;15.466;2023-07-13T11:28:23;27.02;55.78
68098;DHT22;54886;47.036;15.466;2023-07-13T11:31:01;27.05;56.40
68098;DHT22;54886;47.036;15.466;2023-07-13T11:39:20;27.08;55.38
68098;DHT22;54886;47.036;15.466;2023-07-13T11:45:22;27.04;56.71
68098;DHT22;54886;47.036;15.466;2023-07-13T11:51:18;27.05;56.84
68098;DHT22;54886;47.036;15.466;2023-07-13T11:57:30;27.08;57.97
68098;DHT22;54886;47.036;15.466;2023-07-13T12:00:03;27.11;58.07
68098;DHT22;54886;47.036;15.466;2023-07-13T12:11:44;27.28;59.10
68098;DHT22;54886;47.036;15.466;2023-07-13T12:14:17;27.32;58.20
68098;DHT22;54886;47.036;15.466;2023-07-13T12:16:45;27.36;58.18
68098;DHT22;54886;47.036;15.466;2023-07-13T12:22:14;27.41;59.94
68098;DHT22;54886;47.036;15.466;2023-07-13T12:24:42;27.41;59.19
68098;DHT22;54886;47.036;15.466;2023-07-13T12:27:23;27.41;58.58
68098;DHT22;54886;47.036;15.466;2023-07-13T12:33:12;27.22;60.57
68098;DHT22;54886;47.036;15.466;2023-07-13T12:35:46;27.08;60.52
68098;DHT22;54886;47.036;15.466;2023-07-13T12:41:34;26.73;60.31
68098;DHT22;54886;47.036;15.466;2023-07-13T12:47:21;26.63;62.33
68098;DHT22;54886;47.036;15.466;2023-07-13T12:53:13;26.39;64.83
68098;DHT22;54886;47.036;15.466;2023-07-13T12:55:46;26.42;65.70
68098;DHT22;54886;47.036;15.466;2023-07-13T12:58:39;26.32;64.91
68098;DHT22;54886;47.036;15.466;2023-07-13T13:04:30;26.17;65.76
68098;DHT22;54886;47.036;15.466;2023-07-13T13:07:04;26.17;64.58
68098;DHT22;54886;47.036;15.466;2023-07-13T13:12:53;26.00;64.08
68098;DHT22;54886;47.036;15.466;2023-07-13T13:18:40;25.92;63.74
68098;DHT22;54886;47.036;15.466;2023-07-13T13:24:27;25.81;63.84
68098;DHT22;54886;47.036;15.466;2023-07-13T13:26:54;25.75;64.36
68098;DHT22;54886;47.036;15.466;2023-07-13T13:29:23;25.69;64.16
68098;DHT22;54886;47.036;15.466;2023-07-13T13:31:53;25.64;64.11
68098;DHT22;54886;47.036;15.466;2023-07-13T13:34:20;25.50;64.97
68098;DHT22;54886;47.036;15.466;2023-07-13T13:40:15;25.42;65.82
68098;DHT22;54886;47.036;15.466;2023-07-13T13:42:41;25.36;66.71
68098;DHT22;54886;47.036;15.466;2023-07-13T13:45:09;25.18;67.78
68098;DHT22;54886;47.036;15.466;2023-07-13T13:47:36;25.19;67.21
68098;DHT22;54886;47.036;15.466;2023-07-13T13:50:12;25.07;67.53
68098;DHT22;54886;47.036;15.466;2023-07-13T13:56:01;25.01;67.63
68098;DHT22;54886;47.036;15.466;2023-07-13T13:58:27;24.92;67.15
68098;DHT22;54886;47.036;15.466;2023-07-13T14:00:53;25.01;66.75
68098;DHT22;54886;47.036;15.466;2023-07-13T14:03:20;24.88;66.91
68098;DHT22;54886;47.036;15.466;2023-07-13T14:05:47;24.85;67.01
68098;DHT22;54886;47.036;15.466;2023-07-13T14:11:19;24.88;68.29
68098;DHT22;54886;47.036;15.466;2023-07-13T14:13:48;24.88;68.54
68098;DHT22;54886;47.036;15.466;2023-07-13T14:16:19;24.85;66.99
68098;DHT22;54886;47.036;15.466;2023-07-13T14:18:47;24.67;64.33
68098;DHT22;54886;47.036;15.466;2023-07-13T14:21:20;24.59;65.28
68098;DHT22;54886;47.036;15.466;2023-07-13T14:27:10;24.36;64.47
68098;DHT22;54886;47.036;15.466;2023-07-13T14:29:36;24.28;64.67
68098;DHT22;54886;47.036;15.466;2023-07-13T14:32:02;24.23;64.24
68098;DHT22;54886;47.036;15.466;2023-07-13T14:34:28;24.11;65.19
68098;DHT22;54886;47.036;15.466;2023-07-13T14:36:53;24.06;64.26
68098;DHT22;54886;47.036;15.466;2023-07-13T14:39:21;24.02;64.15
68098;DHT22;54886;47.036;15.466;2023-07-13T14:41:53;24.00;64.56
68098;DHT22;54886;47.036;15.466;2023-07-13T14:47:42;23.81;63.60
68098;DHT22;54886;47.036;15.466;2023-07-13T14:50:30;23.81;63.45
68098;DHT22;54886;47.036;15.466;2023-07-13T14:52:56;23.71;64.23
68098;DHT22;54886;47.036;15.466;2023-07-13T14:55:28;23.61;64.26
68098;DHT22;54886;47.036;15.466;2023-07-13T15:01:15;23.49;63.71
68098;DHT22;54886;47.036;15.466;2023-07-13T15:07:03;23.33;64.32
68098;DHT22;54886;47.036;15.466;2023-07-13T15:12:59;23.16;65.68
68098;DHT22;54886;47.036;15.466;2023-07-13T15:18:47;23.11;64.82
68098;DHT22;54886;47.036;15.466;2023-07-13T15:21:19;23.09;64.95
68098;DHT22;54886;47.036;15.466;2023-07-13T15:23:45;23.06;65.53
68098;DHT22;54886;47.036;15.466;2023-07-13T15:26:16;23.09;65.63
68098;DHT22;54886;47.036;15.466;2023-07-13T15:28:43;23.08;66.44
68098;DHT22;54886;47.036;15.466;2023-07-13T15:34:30;22.90;68.87
68098;DHT22;54886;47.036;15.466;2023-07-13T15:40:18;22.84;67.97
68098;DHT22;54886;47.036;15.466;2023-07-13T15:42:47;22.83;70.01
68098;DHT22;54886;47.036;15.466;2023-07-13T15:48:34;22.76;70.95
68098;DHT22;54886;47.036;15.466;2023-07-13T15:54:22;22.67;72.50
68098;DHT22;54886;47.036;15.466;2023-07-13T16:00:16;22.54;73.17
68098;DHT22;54886;47.036;15.466;2023-07-13T16:02:43;22.41;74.23
68098;DHT22;54886;47.036;15.466;2023-07-13T16:05:09;22.40;74.26
68098;DHT22;54886;47.036;15.466;2023-07-13T16:07:35;22.30;74.68
68098;DHT22;54886;47.036;15.466;2023-07-13T16:10:01;22.30;74.80
68098;DHT22;54886;47.036;15.466;2023-07-13T16:15:48;22.05;76.68
68098;DHT22;54886;47.036;15.466;2023-07-13T16:18:14;21.96;77.40
68098;DHT22;54886;47.036;15.466;2023-07-13T16:20:45;21.98;75.55
68098;DHT22;54886;47.036;15.466;2023-07-13T16:23:13;22.05;76.00
68098;DHT22;54886;47.036;15.466;2023-07-13T16:25:40;22.09;74.11
68098;DHT22;54886;47.036;15.466;2023-07-13T16:28:06;22.14;73.68
68098;DHT22;54886;47.036;15.466;2023-07-13T16:30:32;22.12;76.19
68098;DHT22;54886;47.036;15.466;2023-07-13T16:36:20;22.10;76.09
68098;DHT22;54886;47.036;15.466;2023-07-13T16:38:46;22.08;76.27
68098;DHT22;54886;47.036;15.466;2023-07-13T16:41:12;22.02;76.84
68098;DHT22;54886;47.036;15.466;2023-07-13T16:46:59;22.09;76.34
68098;DHT22;54886;47.036;15.466;2023-07-13T16:49:32;22.05;76.38
68098;DHT22;54886;47.036;15.466;2023-07-13T16:52:00;21.98;75.94
68098;DHT22;54886;47.036;15.466;2023-07-13T16:54:34;21.89;75.10
68098;DHT22;54886;47.036;15.466;2023-07-13T16:57:03;21.91;74.89
68098;DHT22;54886;47.036;15.466;2023-07-13T16:59:33;21.98;75.41
68098;DHT22;54886;47.036;15.466;2023-07-13T17:02:01;21.98;74.64
68098;DHT22;54886;47.036;15.466;2023-07-13T17:04:29;21.96;77.31
68098;DHT22;54886;47.036;15.466;2023-07-13T17:06:57;21.95;73.58
68098;DHT22;54886;47.036;15.466;2023-07-13T17:12:45;21.91;76.41
68098;DHT22;54886;47.036;15.466;2023-07-13T17:15:12;21.92;74.71
68098;DHT22;54886;47.036;15.466;2023-07-13T17:17:38;21.96;75.67
68098;DHT22;54886;47.036;15.466;2023-07-13T17:23:29;22.03;74.06
68098;DHT22;54886;47.036;15.466;2023-07-13T17:25:54;22.05;75.90
68098;DHT22;54886;47.036;15.466;2023-07-13T17:28:22;21.96;76.18
68098;DHT22;54886;47.036;15.466;2023-07-13T17:30:50;21.88;78.09
68098;DHT22;54886;47.036;15.466;2023-07-13T17:36:38;21.96;76.99
68098;DHT22;54886;47.036;15.466;2023-07-13T17:42:25;21.95;76.83
68098;DHT22;54886;47.036;15.466;2023-07-13T17:48:13;21.91;75.89
68098;DHT22;54886;47.036;15.466;2023-07-13T17:54:00;21.84;75.58
68098;DHT22;54886;47.036;15.466;2023-07-13T17:56:26;21.82;75.31
68098;DHT22;54886;47.036;15.466;2023-07-13T17:58:52;21.79;76.14
68098;DHT22;54886;47.036;15.466;2023-07-13T18:04:39;21.78;75.76
68098;DHT22;54886;47.036;15.466;2023-07-13T18:07:08;21.74;76.45
68098;DHT22;54886;47.036;15.466;2023-07-13T18:12:59;21.69;76.35
68098;DHT22;54886;47.036;15.466;2023-07-13T18:18:47;21.67;74.90
68098;DHT22;54886;47.036;15.466;2023-07-13T18:24:34;21.55;77.60
68098;DHT22;54886;47.036;15.466;2023-07-13T18:27:00;21.53;74.72
68098;DHT22;54886;47.036;15.466;2023-07-13T18:29:26;21.48;76.51
68098;DHT22;54886;47.036;15.466;2023-07-13T18:35:27;21.37;77.31
68098;DHT22;54886;47.036;15.466;2023-07-13T18:37:54;21.30;78.01
68098;DHT22;54886;47.036;15.466;2023-07-13T18:40:20;21.30;77.96
68098;DHT22;54886;47.036;15.466;2023-07-13T18:42:47;21.33;77.86
68098;DHT22;54886;47.036;15.466;2023-07-13T18:45:14;21.33;77.43
68098;DHT22;54886;47.036;15.466;2023-07-13T18:47:45;21.41;74.42
68098;DHT22;54886;47.036;15.466;2023-07-13T18:50:32;21.43;75.02
68098;DHT22;54886;47.036;15.466;2023-07-13T18:52:59;21.41;76.85
68098;DHT22;54886;47.036;15.466;2023-07-13T18:55:25;21.41;74.35
68098;DHT22;54886;47.036;15.466;2023-07-13T18:57:51;21.40;77.07
68098;DHT22;54886;47.036;15.466;2023-07-13T19:00:24;21.46;74.47
68098;DHT22;54886;47.036;15.466;2023-07-13T19:02:54;21.46;75.69
68098;DHT22;54886;47.036;15.466;2023-07-13T19:08:41;21.34;76.45
68098;DHT22;54886;47.036;15.466;2023-07-13T19:11:13;21.33;78.35
68098;DHT22;54886;47.036;15.466;2023-07-13T19:13:40;21.33;77.45
68098;DHT22;54886;47.036;15.466;2023-07-13T19:16:09;21.30;78.15
68098;DHT22;54886;47.036;15.466;2023-07-13T19:18:36;21.27;78.35
68098;DHT22;54886;47.036;15.466;2023-07-13T19:27:30;21.20;77.75
68098;DHT22;54886;47.036;15.466;2023-07-13T19:33:18;21.16;78.32
68098;DHT22;54886;47.036;15.466;2023-07-13T19:35:44;21.13;76.06
68098;DHT22;54886;47.036;15.466;2023-07-13T19:41:34;21.20;73.51
68098;DHT22;54886;47.036;15.466;2023-07-13T19:47:23;21.09;75.03
68098;DHT22;54886;47.036;15.466;2023-07-13T19:49:48;21.02;75.49
68098;DHT22;54886;47.036;15.466;2023-07-13T19:52:25;21.05;76.05
68098;DHT22;54886;47.036;15.466;2023-07-13T19:54:53;21.02;75.91
68098;DHT22;54886;47.036;15.466;2023-07-13T19:57:21;20.88;77.05
68098;DHT22;54886;47.036;15.466;2023-07-13T19:59:49;20.78;76.34
68098;DHT22;54886;47.036;15.466;2023-07-13T20:02:21;20.79;74.51
68098;DHT22;54886;47.036;15.466;2023-07-13T20:08:17;20.75;74.06
68098;DHT22;54886;47.036;15.466;2023-07-13T20:10:44;20.75;76.70
68098;DHT22;54886;47.036;15.466;2023-07-13T20:16:31;20.76;74.09
68098;DHT22;54886;47.036;15.466;2023-07-13T20:22:19;20.69;74.77
68098;DHT22;54886;47.036;15.466;2023-07-13T20:28:06;20.63;75.84
68098;DHT22;54886;47.036;15.466;2023-07-13T20:33:56;20.64;73.01
68098;DHT22;54886;47.036;15.466;2023-07-13T20:36:22;20.61;73.85
68098;DHT22;54886;47.036;15.466;2023-07-13T20:38:48;20.58;72.32
68098;DHT22;54886;47.036;15.466;2023-07-13T20:41:13;20.58;72.77
68098;DHT22;54886;47.036;15.466;2023-07-13T20:43:39;20.55;73.74
68098;DHT22;54886;47.036;15.466;2023-07-13T20:49:26;20.26;77.09
68098;DHT22;54886;47.036;15.466;2023-07-13T20:51:56;20.19;77.08
68098;DHT22;54886;47.036;15.466;2023-07-13T20:54:23;20.03;77.87
68098;DHT22;54886;47.036;15.466;2023-07-13T20:56:49;20.05;76.85
68098;DHT22;54886;47.036;15.466;2023-07-13T20:59:14;20.02;77.81
68098;DHT22;54886;47.036;15.466;2023-07-13T21:05:18;19.92;76.24
68098;DHT22;54886;47.036;15.466;2023-07-13T21:07:44;19.90;77.58
68098;DHT22;54886;47.036;15.466;2023-07-13T21:13:45;19.86;76.59
68098;DHT22;54886;47.036;15.466;2023-07-13T21:16:22;19.90;75.42
68098;DHT22;54886;47.036;15.466;2023-07-13T21:18:49;19.86;76.56
68098;DHT22;54886;47.036;15.466;2023-07-13T21:24:36;19.86;78.06
68098;DHT22;54886;47.036;15.466;2023-07-13T21:30:27;19.90;76.17
68098;DHT22;54886;47.036;15.466;2023-07-13T21:36:15;19.87;74.48
68098;DHT22;54886;47.036;15.466;2023-07-13T21:38:42;19.89;76.85
68098;DHT22;54886;47.036;15.466;2023-07-13T21:41:30;19.92;74.87
68098;DHT22;54886;47.036;15.466;2023-07-13T21:43:57;19.90;74.45
68098;DHT22;54886;47.036;15.466;2023-07-13T21:46:23;19.92;74.54
68098;DHT22;54886;47.036;15.466;2023-07-13T21:48:49;19.92;74.98
68098;DHT22;54886;47.036;15.466;2023-07-13T21:51:23;19.87;77.55
68098;DHT22;54886;47.036;15.466;2023-07-13T21:53:49;19.83;77.52
68098;DHT22;54886;47.036;15.466;2023-07-13T21:56:16;19.86;75.33
68098;DHT22;54886;47.036;15.466;2023-07-13T21:58:46;19.82;77.07
68098;DHT22;54886;47.036;15.466;2023-07-13T22:01:19;19.78;78.78
68098;DHT22;54886;47.036;15.466;2023-07-13T22:07:13;19.74;77.97